Horinsk, Russia
Current Conditions -  °F | °C
As of 3:00 PM on Thursday 18 Dec 2014 (Local Time) from UIUU Reporting Station
Broken Clouds Broken Clouds  
Wind Chill:   Ceiling: 10000
Heat Index: 16°   Visibility: 6mi
Dew Point:   Wind: 4mph
Humidity: 58%   Direction: 100°E
Pressure: 30.24"   Gusts: NA
Location:  52.17°N, 109.77°E
Report Text: UIUU 180700Z 10002MPS 9999 SCT040 BKN100 M09/M16 Q1024 NOSIGRMK QFE723/0965 26491045
Loading
Personal Weather Stations






























Interactive Weather Map New forecast layout! Learn more

10-Day Weather Forecast

Advertisements
Track Severe Weather on mobile